Time;durP1;ratioP1;P1;durP2;ratioP2;P2;SDS_P1;SDS_P2;PMS_P1;PMS_P2;Temp;Humidity;BMP_temperature;BMP_pressure;BME280_temperature;BME280_humidity;BME280_pressure;Samples;Min_cycle;Max_cycle;Signal;HPM_P1;HPM_P2
2022/06/20 00:02:26;;;;;;;9.88;3.50;;;21.80;99.90;;;22.48;71.28;98288.31;5020598;27;119617;-74
2022/06/20 00:04:57;;;;;;;8.23;3.80;;;21.70;99.90;;;22.46;71.01;98276.13;5024370;27;118278;-73
2022/06/20 00:07:25;;;;;;;11.30;4.32;;;21.60;99.90;;;22.41;71.34;98261.59;5023494;27;130777;-74
2022/06/20 00:09:54;;;;;;;8.73;3.47;;;21.50;99.90;;;22.36;71.32;98264.03;5038810;27;130164;-73
2022/06/20 00:12:27;;;;;;;8.82;3.92;;;21.60;99.90;;;22.35;71.36;98260.50;5039075;27;120351;-72
2022/06/20 00:14:58;;;;;;;8.95;3.85;;;21.60;99.90;;;22.31;71.78;98267.28;5024249;27;118267;-72
2022/06/20 00:17:28;;;;;;;7.20;3.30;;;21.50;99.90;;;22.27;71.99;98273.63;5023538;27;129225;-71
2022/06/20 00:19:57;;;;;;;7.80;3.47;;;21.50;99.90;;;22.23;72.10;98274.88;5038577;27;129965;-73
2022/06/20 00:22:25;;;;;;;8.75;3.83;;;21.60;99.90;;;22.22;72.06;98270.56;5022798;27;121121;-73
2022/06/20 00:24:54;;;;;;;8.35;3.75;;;21.50;99.90;;;22.17;72.40;98274.56;5038881;27;121969;-73
2022/06/20 00:27:23;;;;;;;8.63;3.90;;;21.50;99.90;;;22.18;72.24;98267.09;5038765;27;130264;-75
2022/06/20 00:29:51;;;;;;;8.48;3.75;;;21.50;99.90;;;22.17;72.25;98274.56;5038789;27;129763;-75
2022/06/20 00:32:20;;;;;;;8.90;4.00;;;21.40;99.90;;;22.13;72.61;98268.34;5024007;27;118844;-71
2022/06/20 00:34:50;;;;;;;6.60;3.70;;;21.40;99.90;;;22.13;72.43;98268.34;5038867;27;119522;-71
2022/06/20 00:37:21;;;;;;;7.28;3.35;;;21.40;99.90;;;22.07;74.01;98270.03;5023666;27;129141;-71
2022/06/20 00:39:53;;;;;;;7.00;3.80;;;21.30;99.90;;;21.76;76.46;98261.81;5023767;27;128571;-71
2022/06/20 00:42:21;;;;;;;6.63;3.92;;;20.80;99.90;;;21.26;79.92;98268.00;5038804;27;120466;-70
2022/06/20 00:45:12;;;;;;;8.15;4.20;;;20.20;99.90;;;20.36;82.34;98269.69;5038866;27;120848;-71
2022/06/20 00:48:09;;;;;;;9.00;3.92;;;19.40;99.90;;;19.35;85.15;98267.59;5037205;27;130547;-70
2022/06/20 00:51:05;;;;;;;9.60;3.90;;;18.60;1.00;;;18.74;87.40;98280.72;5038402;27;130229;-68
2022/06/20 00:53:59;;;;;;;6.75;4.20;;;18.10;1.00;;;18.44;86.79;98273.72;5038689;27;120555;-69
2022/06/20 00:56:54;;;;;;;7.85;3.28;;;17.80;1.00;;;18.13;86.41;98276.09;5019338;28;120334;-72
2022/06/20 00:59:47;;;;;;;7.55;3.05;;;17.50;1.00;;;18.07;84.65;98266.66;5018657;28;130942;-70
2022/06/20 01:02:38;;;;;;;9.05;3.53;;;17.30;1.00;;;17.89;83.40;98278.41;5018127;28;130626;-71
2022/06/20 01:05:33;;;;;;;5.03;2.97;;;17.10;99.90;;;17.56;84.35;98283.03;5018930;28;120358;-71
2022/06/20 01:08:26;;;;;;;7.75;3.28;;;16.90;99.90;;;17.45;84.49;98271.22;5022429;28;120381;-72
2022/06/20 01:11:17;;;;;;;9.68;3.33;;;16.70;1.00;;;17.20;84.40;98260.19;5021506;28;131510;-71
2022/06/20 01:14:22;;;;;;;6.47;2.97;;;16.50;1.00;;;17.12;84.25;98258.59;5022145;28;130580;-71
2022/06/20 01:17:22;;;;;;;6.40;3.13;;;16.40;1.00;;;16.96;84.38;98258.91;5020105;28;122729;-71
2022/06/20 01:20:21;;;;;;;6.65;3.15;;;16.20;1.00;;;16.73;84.70;98259.94;5021342;28;123142;-72
2022/06/20 01:23:23;;;;;;;6.80;3.55;;;16.10;1.00;;;16.68;85.52;98241.13;5020802;28;130368;-71
2022/06/20 01:26:43;;;;;;;8.88;3.55;;;16.00;1.00;;;16.74;84.81;98247.81;5020787;28;130892;-71
2022/06/20 01:29:31;;;;;;;6.57;2.80;;;16.00;1.00;;;16.69;84.75;98231.75;5021224;28;120658;-71
2022/06/20 01:32:19;;;;;;;4.97;2.47;;;15.90;1.00;;;16.66;84.84;98221.56;5022293;28;120143;-71
2022/06/20 01:35:12;;;;;;;4.28;2.53;;;15.90;1.00;;;16.71;84.52;98219.22;5021892;28;130951;-71
2022/06/20 01:37:59;;;;;;;6.70;2.67;;;15.80;1.00;;;16.65;84.86;98192.59;5021156;28;130466;-72
2022/06/20 01:43:49;;;;;;;7.03;2.75;;;15.80;1.00;;;16.76;84.73;98187.94;5005804;28;119775;-73
2022/06/20 01:46:38;;;;;;;10.27;3.47;;;15.80;1.00;;;16.81;83.83;98200.50;5021821;28;130819;-73
2022/06/20 01:49:26;;;;;;;5.45;2.60;;;15.80;1.00;;;16.79;84.17;98225.53;5020777;28;130245;-70
2022/06/20 01:52:20;;;;;;;5.40;3.03;;;15.80;1.00;;;16.59;84.95;98232.47;5021172;28;120608;-69
2022/06/20 01:55:12;;;;;;;7.72;2.65;;;15.70;1.00;;;16.42;86.67;98229.22;5030910;27;120192;-71
2022/06/20 01:58:06;;;;;;;6.30;2.83;;;15.70;1.00;;;16.48;86.03;98243.34;5041224;27;131361;-72
2022/06/20 02:00:54;;;;;;;7.22;3.25;;;15.70;1.00;;;16.41;86.38;98246.84;5041272;27;130315;-71
2022/06/20 02:03:46;;;;;;;7.03;2.90;;;15.70;1.00;;;16.30;86.26;98259.69;5041496;27;120446;-70
2022/06/20 02:06:35;;;;;;;8.90;2.78;;;15.70;1.00;;;16.28;86.68;98275.69;5029118;27;120125;-70
2022/06/20 02:09:23;;;;;;;6.75;3.40;;;15.60;1.00;;;16.38;86.98;98277.72;5028934;27;131175;-70
2022/06/20 02:12:12;;;;;;;6.28;3.22;;;15.70;1.00;;;16.45;86.40;98255.84;5040583;27;130914;-70
2022/06/20 02:15:00;;;;;;;5.32;2.70;;;15.60;1.00;;;16.49;86.00;98234.75;5040102;27;122846;-69
2022/06/20 02:17:51;;;;;;;6.85;2.50;;;15.60;1.00;;;16.65;86.03;98228.19;5040468;27;122773;-70
2022/06/20 02:20:46;;;;;;;4.50;2.60;;;15.80;1.00;;;16.84;85.13;98227.13;5040989;27;131305;-69
2022/06/20 02:23:38;;;;;;;7.80;3.50;;;15.80;1.00;;;16.93;85.28;98243.25;5040567;27;131013;-71
2022/06/20 02:26:25;;;;;;;5.20;2.80;;;15.90;1.00;;;17.02;84.61;98243.69;5041200;27;120518;-72
2022/06/20 02:29:23;;;;;;;6.78;3.03;;;15.90;1.00;;;17.11;83.93;98252.34;5040874;27;120475;-70
2022/06/20 02:32:15;;;;;;;7.90;3.10;;;16.00;1.00;;;17.04;83.54;98252.28;5040323;27;130631;-71
2022/06/20 02:35:04;;;;;;;6.18;3.33;;;16.00;1.00;;;16.93;84.48;98241.28;5041131;27;130636;-70
2022/06/20 02:37:53;;;;;;;5.22;2.83;;;16.00;1.00;;;16.91;84.61;98242.81;5043230;27;120624;-69
2022/06/20 02:40:41;;;;;;;6.57;3.00;;;15.90;1.00;;;16.97;84.08;98238.56;5040526;27;120045;-71
2022/06/20 02:43:36;;;;;;;4.63;2.50;;;16.00;1.00;;;17.10;83.36;98239.78;5027171;27;130541;-70
2022/06/20 02:46:28;;;;;;;5.22;2.80;;;16.00;1.00;;;17.39;82.74;98242.63;5040271;27;130833;-70
2022/06/20 02:49:18;;;;;;;6.43;3.10;;;16.30;1.00;;;17.66;81.39;98242.31;5040740;27;120159;-70
2022/06/20 02:52:08;;;;;;;5.05;2.72;;;16.50;1.00;;;17.76;80.62;98242.31;5040329;27;120380;-70
2022/06/20 02:54:58;;;;;;;5.93;2.65;;;16.50;1.00;;;17.84;80.12;98248.59;5041269;27;130691;-69
2022/06/20 02:57:51;;;;;;;6.88;2.90;;;16.50;99.90;;;17.70;80.09;98243.06;5040348;27;130165;-70
2022/06/20 03:00:45;;;;;;;5.95;2.70;;;16.40;99.90;;;17.69;80.46;98253.28;5040534;27;120549;-70
2022/06/20 03:03:36;;;;;;;5.15;2.75;;;16.50;1.00;;;17.79;80.21;98257.19;5040863;27;120246;-71
2022/06/20 03:06:28;;;;;;;6.55;2.90;;;16.50;1.00;;;17.70;81.03;98248.56;5039847;27;130991;-69
2022/06/20 03:09:18;;;;;;;6.90;2.75;;;16.60;1.00;;;17.70;81.08;98254.03;5039970;27;130784;-70
2022/06/20 03:12:09;;;;;;;4.90;2.50;;;16.50;1.00;;;17.71;81.52;98250.13;5038350;27;122756;-71
2022/06/20 03:15:00;;;;;;;5.55;2.80;;;16.50;1.00;;;17.70;80.92;98254.03;5039944;27;122655;-71
2022/06/20 03:17:52;;;;;;;5.03;2.63;;;16.40;1.00;;;17.81;80.79;98254.88;5039304;27;131568;-72
2022/06/20 03:20:40;;;;;;;6.53;3.20;;;16.60;1.00;;;17.84;80.57;98251.34;5039429;27;130486;-71
2022/06/20 03:23:33;;;;;;;5.75;3.03;;;16.60;1.00;;;17.94;80.78;98238.84;5040222;27;120657;-70
2022/06/20 03:26:26;;;;;;;6.53;3.03;;;16.60;1.00;;;18.51;79.08;98251.72;5039786;27;120519;-71
2022/06/20 03:29:18;;;;;;;4.25;2.67;;;17.30;99.90;;;18.62;77.59;98249.75;5039234;27;130846;-72
2022/06/20 03:32:06;;;;;;;6.93;3.10;;;17.40;99.90;;;18.60;77.85;98237.59;5039706;27;130563;-71
2022/06/20 03:34:54;;;;;;;5.22;2.60;;;17.20;99.90;;;18.64;77.70;98236.41;5039471;27;120716;-71
2022/06/20 03:37:42;;;;;;;5.78;3.17;;;17.20;99.90;;;18.85;77.35;98248.53;5039732;27;120683;-70
2022/06/20 03:40:30;;;;;;;8.30;3.70;;;17.40;99.90;;;18.98;77.25;98240.63;5037943;27;130984;-70
2022/06/20 03:43:23;;;;;;;6.63;3.28;;;17.40;99.90;;;18.97;77.58;98245.34;5028141;27;130556;-71
2022/06/20 03:46:19;;;;;;;9.50;3.30;;;17.50;99.90;;;19.13;77.70;98233.13;5007358;28;120730;-70
2022/06/20 03:49:14;;;;;;;4.88;2.85;;;17.60;99.90;;;19.21;77.48;98218.16;5019080;28;120265;-70
2022/06/20 03:52:07;;;;;;;5.38;3.25;;;17.60;99.90;;;19.07;78.83;98232.75;5019563;27;131016;-71
2022/06/20 03:55:03;;;;;;;6.72;3.08;;;17.50;99.90;;;18.85;78.73;98237.53;5040878;27;130057;-70
2022/06/20 03:57:56;;;;;;;7.65;2.80;;;17.40;99.90;;;18.90;78.96;98234.41;5028483;27;120477;-69
2022/06/20 04:00:51;;;;;;;5.38;2.83;;;17.40;99.90;;;19.02;78.53;98225.69;5023297;28;102756;-70
2022/06/20 04:03:44;;;;;;;7.60;3.50;;;17.50;99.90;;;19.27;78.17;98224.78;5018958;28;130605;-72
2022/06/20 04:06:35;;;;;;;6.57;3.03;;;17.80;99.90;;;19.23;78.98;98224.06;5018763;28;130265;-71
2022/06/20 04:12:43;;;;;;;6.43;3.22;;;17.90;1.00;;;19.61;78.54;98226.19;5035913;27;122292;-70
2022/06/20 04:15:37;;;;;;;6.90;3.10;;;18.20;99.90;;;20.00;76.99;98225.91;5037733;27;131030;-69
2022/06/20 04:18:30;;;;;;;8.00;3.45;;;18.50;99.90;;;20.15;76.03;98242.31;5037240;27;130591;-69
2022/06/20 04:21:26;;;;;;;6.18;3.13;;;18.60;99.90;;;20.23;75.58;98243.84;5037140;27;120865;-70
2022/06/20 04:24:23;;;;;;;6.00;3.47;;;18.60;99.90;;;20.51;75.94;98242.78;5039057;27;120401;-69
2022/06/20 04:27:19;;;;;;;5.65;3.08;;;18.90;99.90;;;20.68;75.41;98243.03;5035741;27;130777;-69
2022/06/20 04:30:15;;;;;;;8.30;3.97;;;19.10;99.90;;;20.73;75.44;98240.63;5039003;27;130490;-70
2022/06/20 04:33:08;;;;;;;8.43;4.03;;;19.30;99.90;;;20.59;76.64;98246.25;5037984;27;121595;-70
2022/06/20 04:36:12;;;;;;;7.47;3.63;;;19.10;99.90;;;20.58;77.02;98242.69;5038452;27;120601;-69
2022/06/20 04:39:10;;;;;;;9.77;4.05;;;19.20;99.90;;;20.41;78.63;98233.44;5037149;27;131276;-69
2022/06/20 04:42:05;;;;;;;8.60;3.67;;;19.10;99.90;;;20.71;76.93;98245.75;5043489;27;130312;-69
2022/06/20 04:45:00;;;;;;;7.82;3.90;;;19.40;99.90;;;20.45;77.89;98250.69;5045306;27;120817;-70
2022/06/20 04:47:53;;;;;;;6.45;3.10;;;19.10;99.90;;;20.44;79.61;98249.16;5045194;27;120322;-71
2022/06/20 04:50:45;;;;;;;7.25;3.97;;;19.30;99.90;;;20.89;77.87;98255.81;5044210;27;130969;-70
2022/06/20 04:53:36;;;;;;;9.38;3.97;;;19.50;99.90;;;20.78;79.33;98267.72;5044395;27;131356;-68
2022/06/20 04:56:26;;;;;;;10.40;3.90;;;19.50;99.90;;;20.65;80.05;98258.44;5044971;27;120230;-69
2022/06/20 04:59:18;;;;;;;7.28;3.40;;;19.60;99.90;;;20.79;80.20;98263.78;5042462;27;119961;-69
2022/06/20 05:02:11;;;;;;;7.88;3.72;;;19.70;99.90;;;20.88;78.74;98255.03;5042000;27;130605;-70
2022/06/20 05:05:04;;;;;;;6.55;4.15;;;19.80;99.90;;;21.19;78.46;98264.13;5041964;27;131971;-70
2022/06/20 05:07:52;;;;;;;8.38;3.92;;;20.10;99.90;;;20.94;77.13;98260.88;5041132;27;122572;-70
2022/06/20 05:10:47;;;;;;;7.93;3.88;;;19.90;99.90;;;21.03;76.31;98261.16;5029925;27;122433;-71
2022/06/20 05:13:42;;;;;;;8.38;3.83;;;19.90;99.90;;;20.89;76.23;98277.88;5041943;27;131149;-69
2022/06/20 05:16:35;;;;;;;7.22;3.88;;;19.70;99.90;;;20.58;77.98;98294.28;5041962;27;130629;-70
2022/06/20 05:19:27;;;;;;;8.10;3.47;;;19.40;99.90;;;20.67;76.76;98285.59;5042028;27;120511;-69
2022/06/20 05:22:19;;;;;;;9.57;3.92;;;19.50;99.90;;;20.66;77.97;98284.78;5041998;27;120239;-71
2022/06/20 05:25:15;;;;;;;9.75;4.00;;;19.60;99.90;;;20.88;77.68;98287.31;5041755;27;131056;-71
2022/06/20 05:28:06;;;;;;;10.88;3.85;;;19.80;99.90;;;20.68;78.65;98293.44;5029842;27;130236;-69
2022/06/20 05:30:56;;;;;;;6.80;4.20;;;19.60;99.90;;;20.65;79.14;98292.28;5041601;27;120260;-71
2022/06/20 05:33:48;;;;;;;8.07;4.20;;;19.60;99.90;;;20.63;78.49;98294.63;5042034;27;120329;-70
2022/06/20 05:36:24;;;;;;;7.55;3.80;;;19.60;99.90;;;20.68;78.54;98296.19;5040045;27;130321;-70
2022/06/20 05:39:00;;;;;;;6.70;3.85;;;19.60;99.90;;;20.88;78.55;98293.63;5041391;27;129630;-71
2022/06/20 05:41:28;;;;;;;9.00;4.25;;;19.80;99.90;;;20.75;78.62;98298.88;5041564;27;119285;-70
2022/06/20 05:43:59;;;;;;;10.40;4.40;;;19.80;99.90;;;20.94;78.94;98297.50;5041530;27;119820;-71
2022/06/20 05:46:36;;;;;;;8.30;4.18;;;20.00;99.90;;;21.64;76.76;98301.78;5040913;27;129877;-70
2022/06/20 05:49:08;;;;;;;8.10;4.35;;;20.50;99.90;;;22.36;73.45;98297.19;5041032;27;130458;-72
2022/06/20 05:51:42;;;;;;;8.82;4.47;;;21.00;99.90;;;22.93;69.60;98296.19;5041026;27;119429;-72
2022/06/20 05:54:16;;;;;;;8.93;4.53;;;21.10;99.90;;;23.01;68.52;98290.53;5040633;27;119419;-72
2022/06/20 05:56:50;;;;;;;9.30;5.07;;;21.00;99.90;;;23.24;68.35;98282.19;5040914;27;129996;-72
2022/06/20 05:59:39;;;;;;;11.35;4.65;;;20.90;99.90;;;23.37;66.43;98292.59;5041243;27;130326;-71
2022/06/20 06:02:23;;;;;;;10.20;4.80;;;21.00;99.90;;;23.55;65.57;98290.25;5025599;27;121151;-70
2022/06/20 06:05:03;;;;;;;14.43;5.15;;;21.30;99.90;;;23.76;66.53;98293.75;5041341;27;121934;-70
2022/06/20 06:07:36;;;;;;;12.18;5.03;;;21.40;99.90;;;23.79;65.17;98299.19;5040889;27;129894;-73
2022/06/20 06:10:24;;;;;;;12.68;4.70;;;21.50;99.90;;;23.90;63.27;98284.34;5040847;27;130701;-71
2022/06/20 06:13:02;;;;;;;14.48;5.70;;;21.40;99.90;;;23.93;62.64;98287.03;5025859;27;119604;-73
2022/06/20 06:16:46;;;;;;;14.65;5.70;;;21.40;99.90;;;23.87;63.40;98305.38;5040864;27;119514;-72
2022/06/20 06:18:37;;;;;;;10.15;5.35;;;21.30;99.90;;;23.92;64.13;98309.63;5042380;27;130690;-72
2022/06/20 06:21:06;;;;;;;10.57;4.70;;;21.50;99.90;;;23.93;62.54;98303.66;5025815;27;129298;-75
2022/06/20 06:23:34;;;;;;;14.90;5.30;;;21.00;99.90;;;23.88;63.92;98312.50;5022854;27;120240;-73
2022/06/20 06:26:03;;;;;;;9.18;4.90;;;21.20;99.90;;;24.00;62.80;98311.03;5041063;27;119489;-74
2022/06/20 06:28:33;;;;;;;10.88;5.20;;;21.20;99.90;;;23.82;63.10;98314.19;5021091;27;129874;-71
2022/06/20 06:31:05;;;;;;;13.13;5.07;;;20.90;99.90;;;23.71;63.78;98321.97;5040578;27;129422;-70
2022/06/20 06:33:40;;;;;;;9.73;4.75;;;21.10;99.90;;;23.70;64.31;98318.41;5026128;27;118846;-72
2022/06/20 06:36:16;;;;;;;9.77;4.40;;;21.30;99.90;;;23.88;64.38;98323.56;5040884;27;119666;-71
2022/06/20 06:38:50;;;;;;;9.07;4.22;;;21.40;99.90;;;24.14;64.05;98312.72;5040580;27;130381;-70
2022/06/20 06:41:26;;;;;;;7.75;4.60;;;21.80;99.90;;;24.34;61.95;98309.81;5025468;27;129255;-71
2022/06/20 06:43:56;;;;;;;9.52;4.88;;;21.60;99.90;;;24.47;62.42;98301.59;5022663;27;119972;-71
2022/06/20 06:46:31;;;;;;;8.52;4.90;;;21.90;99.90;;;24.26;61.69;98308.44;5041309;27;120160;-72
2022/06/20 06:49:19;;;;;;;8.38;4.55;;;21.90;99.90;;;23.01;64.81;98307.13;5041629;27;129642;-73
2022/06/20 06:51:56;;;;;;;12.82;4.55;;;21.70;99.90;;;22.85;66.14;98311.38;5044155;27;130161;-71
2022/06/20 06:54:31;;;;;;;11.85;4.25;;;21.60;99.90;;;23.57;64.48;98315.50;5043202;27;122776;-70
2022/06/20 06:57:06;;;;;;;10.30;4.28;;;22.10;99.90;;;23.70;62.80;98323.94;5045346;27;122269;-71
2022/06/20 06:59:41;;;;;;;8.90;4.40;;;22.10;99.90;;;24.09;61.17;98318.75;5028299;27;130083;-71
2022/06/20 07:02:17;;;;;;;12.05;4.78;;;22.00;99.90;;;24.29;60.61;98330.53;5041283;27;130154;-72
2022/06/20 07:04:55;;;;;;;11.57;4.35;;;21.90;99.90;;;24.32;61.31;98334.44;5040194;27;119681;-71
2022/06/20 07:07:33;;;;;;;7.10;4.22;;;22.00;99.90;;;24.02;63.19;98328.00;5040364;27;119755;-71
2022/06/20 07:10:02;;;;;;;9.52;4.20;;;22.30;99.90;;;23.40;63.15;98336.03;5040255;27;129783;-71
2022/06/20 07:12:40;;;;;;;9.93;4.70;;;21.90;99.90;;;23.08;64.56;98340.19;5040610;27;129413;-70
2022/06/20 07:15:15;;;;;;;8.05;3.88;;;21.70;99.90;;;22.44;67.02;98337.38;5040691;27;120013;-70
2022/06/20 07:17:50;;;;;;;10.38;4.47;;;21.40;99.90;;;22.81;66.45;98349.34;5041424;27;120228;-71
2022/06/20 07:20:22;;;;;;;9.35;3.97;;;21.80;99.90;;;22.76;66.62;98352.63;5038855;27;130380;-70
2022/06/20 07:22:52;;;;;;;9.35;4.07;;;21.70;99.90;;;22.65;67.41;98352.03;5039652;27;129891;-70
2022/06/20 07:25:26;;;;;;;6.82;3.35;;;21.40;99.90;;;23.11;65.99;98355.97;5040104;27;119426;-71
2022/06/20 07:27:59;;;;;;;7.38;4.03;;;21.80;99.90;;;23.41;64.40;98359.75;5039975;27;119606;-71
2022/06/20 07:30:35;;;;;;;9.73;3.67;;;21.90;99.90;;;23.10;64.69;98357.94;5019060;28;130235;-72
2022/06/20 07:33:10;;;;;;;5.90;2.90;;;21.60;99.90;;;23.38;64.22;98363.38;5039415;27;129601;-73
2022/06/20 07:35:47;;;;;;;8.63;4.10;;;21.70;99.90;;;23.69;63.80;98367.47;5039808;27;119313;-73
2022/06/20 07:38:23;;;;;;;13.30;4.15;;;21.90;99.90;;;24.19;61.09;98367.63;5040021;27;119665;-71
2022/06/20 07:40:57;;;;;;;9.18;3.67;;;21.80;99.90;;;24.44;60.03;98360.69;5039585;27;130256;-73
2022/06/20 07:43:34;;;;;;;9.13;4.10;;;21.90;99.90;;;24.70;59.51;98359.69;5038908;27;130601;-72
2022/06/20 07:46:10;;;;;;;5.95;3.55;;;21.90;99.90;;;24.84;59.09;98363.28;5038463;27;122195;-74
2022/06/20 07:48:44;;;;;;;11.50;4.00;;;21.90;99.90;;;24.87;58.22;98365.19;5039754;27;122859;-73
2022/06/20 07:51:19;;;;;;;9.88;3.33;;;21.60;99.90;;;24.92;59.59;98353.56;5024345;27;129636;-73
2022/06/20 07:53:53;;;;;;;10.57;3.88;;;22.10;99.90;;;24.99;59.78;98367.25;5024026;27;129463;-74
2022/06/20 07:56:30;;;;;;;6.38;3.50;;;22.50;99.90;;;25.25;58.78;98359.03;5042206;27;119925;-71
2022/06/20 07:59:06;;;;;;;9.70;3.88;;;22.60;99.90;;;24.91;58.76;98358.31;5039294;27;119441;-72
2022/06/20 08:01:51;;;;;;;7.78;3.83;;;22.50;99.90;;;23.92;61.28;98368.59;5023983;27;129620;-72
2022/06/20 08:04:27;;;;;;;6.05;3.30;;;22.20;99.90;;;23.76;62.74;98376.84;5038920;27;129981;-72
2022/06/20 08:07:05;;;;;;;6.55;3.50;;;22.20;99.90;;;23.56;63.96;98369.34;5024219;27;118484;-73
2022/06/20 08:09:40;;;;;;;8.63;3.33;;;22.20;99.90;;;24.13;63.05;98372.88;5039151;27;120483;-73
2022/06/20 08:12:19;;;;;;;6.82;3.53;;;22.60;99.90;;;24.10;62.19;98370.19;5037381;27;130324;-72
2022/06/20 08:14:55;;;;;;;10.20;4.13;;;22.70;99.90;;;24.26;60.41;98381.28;5038306;27;129562;-72
2022/06/20 08:17:24;;;;;;;;;;;22.70;99.90;;;24.09;62.67;98376.94;5037978;27;119883;-73
2022/06/20 08:19:52;;;;;;;7.47;3.58;;;22.80;99.90;;;24.73;61.04;98381.00;5023817;27;118574;-73
2022/06/20 08:22:39;;;;;;;10.13;4.03;;;22.80;99.90;;;25.30;59.06;98380.72;5038363;27;129581;-75
2022/06/20 08:25:13;;;;;;;11.20;5.68;;;23.20;99.90;;;25.64;58.57;98384.94;5020026;27;129526;-74
2022/06/20 08:27:46;;;;;;;6.90;3.75;;;23.10;99.90;;;25.68;56.68;98385.63;5038857;27;120015;-74
2022/06/20 08:30:20;;;;;;;6.72;3.33;;;22.80;99.90;;;25.16;58.40;98383.88;5038868;27;119639;-73
2022/06/20 08:32:57;;;;;;;6.43;3.33;;;22.90;99.90;;;25.05;59.99;98382.16;5023471;27;129191;-72
2022/06/20 08:35:36;;;;;;;6.25;3.40;;;23.20;99.90;;;25.18;59.10;98379.44;5035932;27;129280;-73
2022/06/20 08:38:16;;;;;;;4.32;3.00;;;23.30;99.90;;;24.92;59.62;98382.09;5037423;27;122000;-73
2022/06/20 08:41:16;;;;;;;6.93;3.40;;;23.20;99.90;;;24.95;60.41;98380.44;5020383;27;121950;-74
2022/06/20 08:44:26;;;;;;;7.15;3.40;;;23.20;99.90;;;25.16;58.94;98378.31;5038358;27;130538;-70
2022/06/20 08:47:36;;;;;;;7.70;3.70;;;23.40;99.90;;;25.02;60.01;98394.13;5003288;28;129394;-73
2022/06/20 08:50:55;;;;;;;6.43;3.28;;;23.40;99.90;;;24.71;60.30;98391.75;5007317;27;118865;-72
2022/06/20 08:54:15;;;;;;;7.93;3.08;;;23.20;99.90;;;25.04;59.70;98388.13;5023486;27;118287;-72
2022/06/20 08:56:58;;;;;;;9.00;3.40;;;23.40;99.90;;;25.57;57.00;98396.25;5040956;27;129894;-72
2022/06/20 08:59:54;;;;;;;15.27;10.30;;;23.10;99.90;;;25.89;56.30;98389.00;5036763;27;129658;-71
2022/06/20 09:02:58;;;;;;;6.90;2.80;;;23.60;99.90;;;25.73;56.70;98379.53;5018423;28;119713;-72
2022/06/20 09:05:53;;;;;;;8.57;3.00;;;23.70;99.90;;;25.75;57.36;98382.63;5004445;28;119895;-73
2022/06/20 09:09:11;;;;;;;6.40;3.05;;;24.10;99.90;;;25.73;55.76;98385.09;5016244;28;130790;-74
2022/06/20 09:12:10;;;;;;;8.90;3.38;;;23.60;99.90;;;25.97;54.89;98385.59;5002784;28;129405;-73
2022/06/20 09:15:18;;;;;;;9.40;2.72;;;23.90;99.90;;;26.44;54.91;98373.00;5017978;28;120169;-73
2022/06/20 09:17:59;;;;;;;6.25;2.70;;;23.90;99.90;;;25.89;56.56;98383.44;5017692;28;119798;-70
2022/06/20 09:20:36;;;;;;;7.53;3.10;;;24.10;99.90;;;26.35;56.02;98370.13;5017498;28;129867;-73
2022/06/20 09:23:21;;;;;;;7.05;3.42;;;24.30;99.90;;;26.77;54.91;98370.00;5002595;28;128604;-74
2022/06/20 09:26:00;;;;;;;8.43;3.22;;;24.40;99.90;;;26.01;55.44;98374.38;5019528;28;118768;-71
2022/06/20 09:28:57;;;;;;;7.10;3.30;;;24.10;99.90;;;26.41;54.17;98378.69;5021224;28;119802;-71
2022/06/20 09:32:20;;;;;;;4.38;2.60;;;24.40;99.90;;;26.77;52.55;98375.56;5020813;28;130015;-70
2022/06/20 09:35:26;;;;;;;6.20;2.75;;;24.10;99.90;;;27.13;54.78;98376.31;4992251;28;129862;-71
2022/06/20 09:38:35;;;;;;;5.50;3.03;;;24.60;99.90;;;27.07;53.52;98373.34;5019937;28;122621;-71
2022/06/20 09:41:17;;;;;;;7.13;3.22;;;24.50;99.90;;;27.29;52.95;98384.50;5021321;28;122553;-72
2022/06/20 09:44:00;;;;;;;6.63;2.95;;;24.80;99.90;;;27.46;52.11;98365.63;5005935;28;129679;-73
2022/06/20 09:46:37;;;;;;;6.78;2.80;;;25.20;99.90;;;26.80;54.14;98363.53;5005982;28;128985;-73
2022/06/20 09:49:20;;;;;;;6.05;2.85;;;24.50;99.90;;;26.70;53.65;98370.22;5021081;28;119443;-74
2022/06/20 09:52:03;;;;;;;5.25;2.72;;;24.80;99.90;;;27.06;52.97;98371.78;5022859;28;118986;-74
2022/06/20 09:54:43;;;;;;;8.82;2.90;;;24.90;99.90;;;27.01;50.26;98369.59;5005412;28;130258;-72
2022/06/20 09:57:30;;;;;;;6.82;3.00;;;25.00;99.90;;;26.46;51.66;98365.00;5002058;28;130045;-73
2022/06/20 10:00:10;;;;;;;5.22;2.80;;;24.70;99.90;;;26.32;52.73;98362.69;5021088;28;119874;-72
2022/06/20 10:02:57;;;;;;;6.03;3.13;;;24.40;99.90;;;26.45;52.73;98363.44;5006421;28;118147;-71
2022/06/20 10:05:42;;;;;;;7.07;3.25;;;24.80;99.90;;;26.34;54.43;98351.91;5039266;27;130481;-74
2022/06/20 10:08:25;;;;;;;7.00;3.33;;;24.90;99.90;;;26.91;53.46;98365.94;5040840;27;130374;-70
2022/06/20 10:11:00;;;;;;;5.38;3.10;;;25.00;99.90;;;27.47;52.04;98372.75;5040956;27;119690;-72
2022/06/20 10:13:39;;;;;;;7.27;3.20;;;24.80;99.90;;;27.60;51.07;98370.66;5040972;27;119560;-71
2022/06/20 10:16:19;;;;;;;6.78;2.78;;;24.60;99.90;;;27.57;51.54;98370.81;5025994;27;130460;-72
2022/06/20 10:18:58;;;;;;;4.88;2.65;;;24.80;99.90;;;27.51;51.21;98367.81;5040669;27;129784;-74
2022/06/20 10:21:35;;;;;;;6.13;2.80;;;25.10;99.90;;;26.96;52.74;98362.59;5043795;27;120604;-74
2022/06/20 10:24:24;;;;;;;7.10;3.63;;;24.80;99.90;;;27.37;51.74;98357.97;5041495;27;119416;-76
2022/06/20 10:27:34;;;;;;;8.20;3.25;;;25.20;99.90;;;27.03;51.72;98361.56;5042608;27;129973;-73
2022/06/20 10:30:09;;;;;;;6.30;3.00;;;24.90;99.90;;;26.37;54.02;98351.00;5043215;27;130577;-73
2022/06/20 10:32:58;;;;;;;7.03;3.30;;;24.60;99.90;;;26.16;55.34;98346.91;5023424;27;122007;-74
2022/06/20 10:35:56;;;;;;;7.57;3.25;;;24.40;99.90;;;26.71;53.34;98352.31;5045480;27;121620;-75
2022/06/20 10:38:37;;;;;;;6.90;3.00;;;24.50;99.90;;;27.17;51.98;98349.16;5042734;27;130196;-75
2022/06/20 10:41:10;;;;;;;7.38;2.97;;;24.90;99.90;;;27.73;50.53;98361.47;5040435;27;130023;-76
2022/06/20 10:43:48;;;;;;;7.75;3.25;;;25.40;99.90;;;28.13;50.09;98344.78;5040772;27;119586;-74
2022/06/20 10:46:27;;;;;;;7.47;3.20;;;25.60;99.90;;;27.62;50.65;98334.75;5040564;27;120584;-74
2022/06/20 10:49:33;;;;;;;5.70;2.72;;;25.30;99.90;;;27.82;48.85;98355.94;5040278;27;129769;-73
2022/06/20 10:52:20;;;;;;;6.03;2.40;;;24.60;99.90;;;27.90;49.47;98365.56;5013920;27;129370;-75
2022/06/20 10:55:04;;;;;;;11.18;3.15;;;24.70;99.90;;;28.05;48.75;98359.47;5040158;27;119528;-74
2022/06/20 10:57:50;;;;;;;5.22;2.75;;;25.00;99.90;;;28.75;47.66;98364.66;5040491;27;119910;-73
2022/06/20 11:00:22;;;;;;;8.25;3.20;;;25.70;99.90;;;28.94;46.83;98374.59;5023754;27;129907;-73
2022/06/20 11:03:28;;;;;;;7.70;3.13;;;25.50;99.90;;;28.94;47.31;98360.66;5040021;27;130098;-73
2022/06/20 11:06:08;;;;;;;6.75;2.67;;;25.40;99.90;;;28.51;48.87;98365.19;5040457;27;119645;-73
2022/06/20 11:08:45;;;;;;;7.22;2.60;;;25.40;99.90;;;27.35;50.88;98370.81;5022253;27;119449;-72
2022/06/20 11:11:30;;;;;;;7.45;2.40;;;25.00;99.90;;;26.79;52.28;98370.31;5024704;27;129572;-76
2022/06/20 11:14:11;;;;;;;6.50;2.60;;;24.70;99.90;;;26.61;53.38;98375.66;5039831;27;130024;-72
2022/06/20 11:16:50;;;;;;;6.25;2.70;;;24.70;99.90;;;26.79;53.85;98384.22;5039991;27;119857;-74
2022/06/20 11:19:31;;;;;;;4.80;2.63;;;24.80;99.90;;;27.18;51.39;98396.03;5025349;27;119250;-75
2022/06/20 11:22:20;;;;;;;11.50;2.72;;;24.80;99.90;;;26.87;52.37;98382.75;5024411;27;129847;-72
2022/06/20 11:25:00;;;;;;;6.70;2.80;;;24.80;99.90;;;27.01;52.82;98375.16;5039543;27;129297;-74
2022/06/20 11:27:48;;;;;;;7.68;3.40;;;25.10;99.90;;;27.49;51.89;98375.88;5038655;27;121888;-73
2022/06/20 11:30:23;;;;;;;7.55;3.00;;;25.30;99.90;;;27.70;50.75;98373.50;5039628;27;121785;-74
2022/06/20 11:33:14;;;;;;;10.52;3.60;;;25.30;99.90;;;27.97;50.19;98373.69;5039506;27;130662;-74
2022/06/20 11:35:54;;;;;;;8.07;3.28;;;25.10;99.90;;;28.60;49.81;98382.00;5007792;27;128868;-70